createdAt,value
2022-12-29T00:02:52.010Z,10.86
2022-12-29T00:07:05.479Z,10.91
2022-12-29T00:11:19.616Z,10.98
2022-12-29T00:15:40.562Z,10.88
2022-12-29T00:20:10.708Z,10.90
2022-12-29T00:24:23.030Z,10.98
2022-12-29T00:28:53.353Z,10.88
2022-12-29T00:33:29.594Z,10.99
2022-12-29T00:38:07.445Z,10.93
2022-12-29T00:42:37.669Z,10.98
2022-12-29T00:46:49.341Z,10.97
2022-12-29T00:51:00.977Z,10.98
2022-12-29T00:55:12.718Z,11.00
2022-12-29T00:59:25.467Z,10.93
2022-12-29T01:03:38.195Z,10.94
2022-12-29T01:07:49.740Z,10.96
2022-12-29T01:12:02.968Z,10.92
2022-12-29T01:16:14.687Z,10.94
2022-12-29T01:20:28.596Z,10.94
2022-12-29T01:24:40.236Z,10.97
2022-12-29T01:28:51.856Z,10.99
2022-12-29T01:33:04.234Z,10.94
2022-12-29T01:37:15.867Z,10.97
2022-12-29T01:41:27.515Z,10.89
2022-12-29T01:45:39.515Z,10.89
2022-12-29T01:49:55.322Z,10.97
2022-12-29T01:54:13.937Z,10.91
2022-12-29T01:58:30.851Z,10.90
2022-12-29T02:03:09.409Z,10.99
2022-12-29T02:07:25.753Z,10.94
2022-12-29T02:11:38.085Z,11.02
2022-12-29T02:15:49.610Z,11.03
2022-12-29T02:20:38.255Z,11.01
2022-12-29T02:24:58.965Z,11.07
2022-12-29T02:29:16.595Z,11.02
2022-12-29T02:33:41.061Z,10.97
2022-12-29T02:38:10.706Z,10.93
2022-12-29T02:42:54.970Z,10.96
2022-12-29T02:47:41.116Z,10.84
2022-12-29T02:52:05.153Z,10.74
2022-12-29T02:56:18.169Z,10.81
2022-12-29T03:00:31.630Z,10.79
2022-12-29T03:05:16.835Z,10.86
2022-12-29T03:10:07.468Z,10.99
2022-12-29T03:14:59.108Z,10.96
2022-12-29T03:19:22.785Z,10.93
2022-12-29T03:23:36.815Z,10.80
2022-12-29T03:27:54.027Z,10.75
2022-12-29T03:32:09.891Z,10.78
2022-12-29T03:36:31.289Z,10.85
2022-12-29T03:40:47.931Z,10.82
2022-12-29T03:44:59.391Z,10.94
2022-12-29T03:49:10.948Z,10.91
2022-12-29T03:53:24.584Z,10.92
2022-12-29T03:57:36.192Z,10.94
2022-12-29T04:01:52.198Z,10.91
2022-12-29T04:06:04.222Z,10.93
2022-12-29T04:10:23.787Z,10.97
2022-12-29T04:14:38.967Z,10.99
2022-12-29T04:18:50.763Z,10.94
2022-12-29T04:23:04.424Z,10.97
2022-12-29T04:27:16.659Z,11.02
2022-12-29T04:31:48.741Z,11.00
2022-12-29T04:36:00.384Z,10.98
2022-12-29T04:40:13.136Z,10.89
2022-12-29T04:44:24.884Z,10.84
2022-12-29T04:48:36.467Z,10.85
2022-12-29T04:52:59.290Z,10.82
2022-12-29T04:57:11.914Z,10.72
2022-12-29T05:01:24.628Z,10.68
2022-12-29T05:05:36.301Z,10.68
2022-12-29T05:09:47.881Z,10.65
2022-12-29T05:13:59.444Z,10.60
2022-12-29T05:18:10.939Z,10.59
2022-12-29T05:22:22.695Z,10.59
2022-12-29T05:26:34.881Z,10.54
2022-12-29T05:31:09.348Z,10.48
2022-12-29T05:35:20.985Z,10.39
2022-12-29T05:39:32.776Z,10.21
2022-12-29T05:43:46.758Z,10.12
2022-12-29T05:48:18.597Z,9.84
2022-12-29T05:53:08.711Z,9.85
2022-12-29T05:57:22.031Z,9.80
2022-12-29T06:01:42.952Z,9.76
2022-12-29T06:05:54.652Z,9.80
2022-12-29T06:10:07.418Z,9.86
2022-12-29T06:14:27.129Z,9.87
2022-12-29T06:18:38.770Z,9.94
2022-12-29T06:22:50.672Z,9.92
2022-12-29T06:27:03.409Z,9.90
2022-12-29T06:31:15.230Z,9.83
2022-12-29T06:35:26.992Z,9.80
2022-12-29T06:39:38.655Z,9.85
2022-12-29T06:43:54.409Z,9.85
2022-12-29T06:48:21.026Z,9.77
2022-12-29T06:52:32.526Z,9.92
2022-12-29T06:56:44.202Z,9.92
2022-12-29T07:00:55.810Z,10.12
2022-12-29T07:05:08.728Z,10.07
2022-12-29T07:09:20.409Z,10.11
2022-12-29T07:13:32.029Z,10.15
2022-12-29T07:17:43.914Z,10.17
2022-12-29T07:21:56.003Z,10.20
2022-12-29T07:26:12.182Z,10.16
2022-12-29T07:30:23.994Z,10.22
2022-12-29T07:34:35.712Z,10.20
2022-12-29T07:38:47.363Z,10.23
2022-12-29T07:42:58.934Z,10.31
2022-12-29T07:47:24.206Z,10.28
2022-12-29T07:51:35.773Z,10.34
2022-12-29T07:55:57.463Z,10.30
2022-12-29T08:00:10.587Z,10.32
2022-12-29T08:04:25.147Z,10.29
2022-12-29T08:08:36.824Z,10.22
2022-12-29T08:12:48.438Z,10.11
2022-12-29T08:17:00.051Z,10.07
2022-12-29T08:21:11.988Z,10.06
2022-12-29T08:25:24.007Z,10.20
2022-12-29T08:29:35.819Z,10.37
2022-12-29T08:33:47.391Z,10.37
2022-12-29T08:37:59.047Z,10.50
2022-12-29T08:42:10.699Z,10.69
2022-12-29T08:46:22.334Z,10.69
2022-12-29T08:50:33.957Z,10.71
2022-12-29T08:54:45.644Z,10.68
2022-12-29T08:58:57.544Z,10.80
2022-12-29T09:03:10.327Z,10.82
2022-12-29T09:07:22.252Z,10.79
2022-12-29T09:11:33.878Z,10.73
2022-12-29T09:15:46.126Z,10.63
2022-12-29T09:19:57.817Z,10.58
2022-12-29T09:24:09.562Z,10.56
2022-12-29T09:28:21.974Z,10.52
2022-12-29T09:32:35.350Z,10.50
2022-12-29T09:36:49.668Z,10.48
2022-12-29T09:41:25.660Z,10.48
2022-12-29T09:45:54.288Z,10.50
2022-12-29T09:50:19.741Z,10.54
2022-12-29T09:54:40.423Z,10.35
2022-12-29T09:58:53.684Z,10.45
2022-12-29T10:03:16.930Z,10.42
2022-12-29T10:07:42.822Z,10.35
2022-12-29T10:12:29.971Z,10.26
2022-12-29T10:16:54.735Z,10.19
2022-12-29T10:21:34.031Z,10.14
2022-12-29T10:25:46.214Z,10.04
2022-12-29T10:30:00.635Z,9.91
2022-12-29T10:34:34.446Z,10.10
2022-12-29T10:39:02.445Z,10.01
2022-12-29T10:43:27.310Z,10.09
2022-12-29T10:47:48.670Z,10.15
2022-12-29T10:52:04.440Z,10.10
2022-12-29T10:56:39.568Z,10.05
2022-12-29T11:00:54.648Z,10.12
2022-12-29T11:05:31.427Z,10.05
2022-12-29T11:09:44.843Z,10.21
2022-12-29T11:14:11.393Z,10.16
2022-12-29T11:18:24.973Z,10.23
2022-12-29T11:22:37.891Z,10.38
2022-12-29T11:26:58.506Z,10.53
2022-12-29T11:31:11.103Z,10.44
2022-12-29T11:35:31.844Z,10.62
2022-12-29T11:39:58.364Z,10.66
2022-12-29T11:44:13.743Z,10.93
2022-12-29T11:48:39.142Z,10.90
2022-12-29T11:52:59.624Z,10.78
2022-12-29T11:57:17.839Z,10.89
2022-12-29T12:01:37.997Z,10.85
2022-12-29T12:05:59.429Z,10.81
2022-12-29T12:10:20.623Z,10.78
2022-12-29T12:15:01.497Z,10.76
2022-12-29T12:19:49.533Z,10.78
2022-12-29T12:24:48.603Z,10.96
2022-12-29T12:29:02.405Z,10.93
2022-12-29T12:33:30.132Z,10.86
2022-12-29T12:38:11.355Z,10.93
2022-12-29T12:42:22.979Z,11.09
2022-12-29T12:46:38.241Z,11.11
2022-12-29T12:51:31.866Z,11.41
2022-12-29T12:55:58.442Z,11.39
2022-12-29T13:00:14.011Z,11.31
2022-12-29T13:04:52.398Z,11.26
2022-12-29T13:09:18.671Z,11.11
2022-12-29T13:13:51.500Z,11.13
2022-12-29T13:18:06.246Z,11.10
2022-12-29T13:22:20.928Z,11.00
2022-12-29T13:26:40.347Z,11.00
2022-12-29T13:30:51.914Z,10.99
2022-12-29T13:35:22.200Z,10.88
2022-12-29T13:39:39.726Z,10.82
2022-12-29T13:43:52.712Z,10.80
2022-12-29T13:48:17.631Z,10.78
2022-12-29T13:52:52.580Z,10.89
2022-12-29T13:57:13.451Z,10.82
2022-12-29T14:01:49.535Z,10.85
2022-12-29T14:06:20.363Z,10.90
2022-12-29T14:10:49.474Z,10.83
2022-12-29T14:15:10.142Z,10.65
2022-12-29T14:19:32.536Z,10.65
2022-12-29T14:23:46.486Z,10.49
2022-12-29T14:27:58.982Z,10.42
2022-12-29T14:32:25.725Z,10.41
2022-12-29T14:36:56.596Z,10.25
2022-12-29T14:41:39.661Z,10.15
2022-12-29T14:46:10.205Z,10.08
2022-12-29T14:50:21.860Z,9.97
2022-12-29T14:54:39.464Z,9.92
2022-12-29T14:58:54.362Z,9.96
2022-12-29T15:03:13.535Z,9.99
2022-12-29T15:07:27.666Z,9.90
2022-12-29T15:11:39.168Z,9.91
2022-12-29T15:15:50.789Z,9.91
2022-12-29T15:20:26.166Z,9.88
2022-12-29T15:24:43.122Z,9.87
2022-12-29T15:28:58.723Z,9.80
2022-12-29T15:33:20.025Z,9.84
2022-12-29T15:37:37.039Z,9.80
2022-12-29T15:42:24.326Z,9.80
2022-12-29T15:46:36.277Z,9.74
2022-12-29T15:50:49.009Z,9.71
2022-12-29T15:55:02.579Z,9.70
2022-12-29T15:59:34.708Z,9.68
2022-12-29T16:03:47.282Z,9.71
2022-12-29T16:08:00.830Z,9.66
2022-12-29T16:12:22.370Z,9.68
2022-12-29T16:16:38.903Z,9.70
2022-12-29T16:20:50.731Z,9.67
2022-12-29T16:25:24.117Z,9.65
2022-12-29T16:29:36.548Z,9.67
2022-12-29T16:33:53.102Z,9.65
2022-12-29T16:38:14.576Z,9.60
2022-12-29T16:42:57.203Z,9.46
2022-12-29T16:47:11.679Z,9.50
2022-12-29T16:51:36.055Z,9.47
2022-12-29T16:55:49.337Z,9.32
2022-12-29T17:00:04.437Z,9.23
2022-12-29T17:04:16.114Z,9.18
2022-12-29T17:08:27.800Z,9.13
2022-12-29T17:12:39.802Z,9.17
2022-12-29T17:16:51.514Z,9.10
2022-12-29T17:21:03.584Z,9.04
2022-12-29T17:25:18.613Z,9.01
2022-12-29T17:29:38.388Z,8.92
2022-12-29T17:33:49.954Z,8.86
2022-12-29T17:38:01.534Z,8.79
2022-12-29T17:42:13.197Z,8.72
2022-12-29T17:46:24.822Z,8.72
2022-12-29T17:50:36.480Z,8.70
2022-12-29T17:54:52.353Z,8.70
2022-12-29T17:59:03.896Z,8.67
2022-12-29T18:03:23.448Z,8.56
2022-12-29T18:07:36.235Z,8.47
2022-12-29T18:11:48.136Z,8.41
2022-12-29T18:15:59.783Z,8.31
2022-12-29T18:20:11.915Z,8.28
2022-12-29T18:24:23.773Z,8.26
2022-12-29T18:28:35.584Z,8.37
2022-12-29T18:32:47.273Z,8.51
2022-12-29T18:37:00.120Z,8.50
2022-12-29T18:41:24.491Z,8.56
2022-12-29T18:45:36.425Z,8.60
2022-12-29T18:49:48.458Z,8.60
2022-12-29T18:54:03.425Z,8.58
2022-12-29T18:58:15.674Z,8.54
2022-12-29T19:02:28.472Z,8.31
2022-12-29T19:06:40.167Z,8.20
2022-12-29T19:10:52.118Z,8.12
2022-12-29T19:15:07.185Z,7.96
2022-12-29T19:19:19.121Z,7.98
2022-12-29T19:23:33.386Z,8.04
2022-12-29T19:27:45.079Z,8.11
2022-12-29T19:31:56.758Z,8.27
2022-12-29T19:36:09.607Z,8.32
2022-12-29T19:40:24.373Z,8.37
2022-12-29T19:44:36.028Z,8.36
2022-12-29T19:48:47.638Z,8.39
2022-12-29T19:53:05.017Z,8.35
2022-12-29T19:57:17.665Z,8.35
2022-12-29T20:01:29.533Z,8.28
2022-12-29T20:05:41.354Z,8.36
2022-12-29T20:09:53.074Z,8.25
2022-12-29T20:14:04.734Z,8.17
2022-12-29T20:18:16.534Z,8.02
2022-12-29T20:22:28.290Z,8.01
2022-12-29T20:26:39.902Z,7.95
2022-12-29T20:31:14.248Z,7.98
2022-12-29T20:35:26.126Z,8.00
2022-12-29T20:39:38.192Z,8.06
2022-12-29T20:43:50.926Z,8.06
2022-12-29T20:48:02.565Z,8.06
2022-12-29T20:52:14.150Z,8.03
2022-12-29T20:56:27.712Z,8.13
2022-12-29T21:00:39.304Z,8.09
2022-12-29T21:05:22.695Z,8.06
2022-12-29T21:09:22.972Z,7.95
2022-12-29T21:13:35.178Z,7.80
2022-12-29T21:17:46.843Z,7.63
2022-12-29T21:21:58.511Z,7.52
2022-12-29T21:26:12.000Z,7.49
2022-12-29T21:30:23.649Z,7.34
2022-12-29T21:34:35.746Z,7.33
2022-12-29T21:38:47.800Z,7.42
2022-12-29T21:42:59.380Z,7.54
2022-12-29T21:47:11.512Z,7.63
2022-12-29T21:51:41.628Z,7.60
2022-12-29T21:55:54.127Z,7.62
2022-12-29T22:00:36.754Z,7.61
2022-12-29T22:05:07.865Z,7.55
2022-12-29T22:09:43.344Z,7.42
2022-12-29T22:13:56.419Z,7.23
2022-12-29T22:18:07.991Z,7.16
2022-12-29T22:22:19.588Z,7.02
2022-12-29T22:26:31.236Z,6.93
2022-12-29T22:30:43.174Z,6.87
2022-12-29T22:34:54.840Z,6.83
2022-12-29T22:39:06.469Z,6.76
2022-12-29T22:43:19.882Z,6.72
2022-12-29T22:47:31.495Z,6.68
2022-12-29T22:51:43.134Z,6.64
2022-12-29T22:56:07.046Z,6.70
2022-12-29T23:00:18.701Z,6.81
2022-12-29T23:09:03.675Z,7.04
2022-12-29T23:13:15.312Z,7.07
2022-12-29T23:17:27.370Z,7.05
2022-12-29T23:21:39.466Z,6.94
2022-12-29T23:25:51.044Z,6.89
2022-12-29T23:30:02.807Z,7.03
2022-12-29T23:34:16.399Z,7.03
2022-12-29T23:38:28.121Z,7.02
2022-12-29T23:42:39.680Z,6.96
2022-12-29T23:46:51.283Z,6.85
2022-12-29T23:51:05.450Z,6.75
2022-12-29T23:55:17.094Z,6.80
2022-12-29T23:59:28.794Z,6.86
